Hovedside
METAR-TAF:

METAR-TAF

Lufthavner :

Curaçao internasjonale lufthavn

Curaçao, De nederlandske Antillene

breddegrad: 12-12N, lengdegrad: 068-58W, høyde over havet: 9 m

Gjeldene værobservasjon

Denne rapporten ble laget for 43 minutter siden, klokken 08:00 UTC
Vind 9 kt fra Øst-sørøst
Temperatur 27°C
Luftfuktighet 79%
Trykk 1013 hPa
Sikt 10 km eller mer

METAR: TNCC 220800Z AUTO 11009KT 9999 NCD 27/23 Q1013

Tid: 04:43 (08:43 UTC)

Varsel

Denne rapporten ble laget for 5 timer og 3 minutter siden, klokken 03:40 UTC
Varsel gyldig fra 22. klokken 06 UTC til 23. klokken 06 UTC
Vind 11 kt fra Øst
Sikt 10 km eller mer
Få skyer i en høyde av 1800 ft
Midlertidig
fra 22. klokken 13 UTC til 22. klokken 18 UTC
Brutte skyer i en høyde av 1500 ft
Midlertidig
fra 22. klokken 16 UTC til 22. klokken 22 UTC
Vind 17 kt fra Øst-sørøst

TAF: TNCC 220340Z 2206/2306 10011KT 9999 FEW018 TEMPO 2213/2218 BKN015 TEMPO 2216/2222 11017KT

Værobservasjoner og værvarsel for over 4000 flyplasser (METAR- og TAF-rapporter).

Tilgjengelige stasjoner er representert av de røde og gule prikkene på kartet.

Hold musepekeren over prikken for å se navnet på stasjonen.

Klikk så for å se værobservasjoner og -varsler.

For å forandre kartet kan du klikke på den grønne knappen med svart kryss for å zoome inn, på den grønne knappen med strek for å zoome ut, eller på de grønne pilene for å se tilstøtende kart.


METAR-TAF: